createdAt,value
2022-11-25T00:01:31.889Z,81.67
2022-11-25T00:04:01.710Z,80.23
2022-11-25T00:06:31.660Z,90.97
2022-11-25T00:09:01.227Z,84.00
2022-11-25T00:11:29.398Z,93.03
2022-11-25T00:13:58.587Z,81.13
2022-11-25T00:16:27.498Z,83.67
2022-11-25T00:18:57.795Z,78.77
2022-11-25T00:21:28.641Z,91.80
2022-11-25T00:23:58.151Z,89.70
2022-11-25T00:26:27.538Z,95.53
2022-11-25T00:28:57.657Z,98.60
2022-11-25T00:31:28.062Z,93.13
2022-11-25T00:33:56.428Z,94.93
2022-11-25T00:36:27.240Z,93.03
2022-11-25T00:38:56.203Z,89.80
2022-11-25T00:41:42.612Z,94.80
2022-11-25T00:44:41.674Z,89.00
2022-11-25T00:47:12.369Z,92.83
2022-11-25T00:49:41.925Z,91.67
2022-11-25T00:52:15.315Z,92.90
2022-11-25T00:54:44.701Z,95.43
2022-11-25T00:57:12.683Z,88.20
2022-11-25T00:59:41.326Z,93.27
2022-11-25T01:02:10.961Z,84.80
2022-11-25T01:04:39.455Z,89.47
2022-11-25T01:07:08.315Z,91.07
2022-11-25T01:09:38.642Z,91.40
2022-11-25T01:12:07.451Z,96.87
2022-11-25T01:14:36.639Z,94.03
2022-11-25T01:17:05.322Z,91.07
2022-11-25T01:19:33.890Z,87.07
2022-11-25T01:22:01.917Z,81.77
2022-11-25T01:24:30.032Z,88.67
2022-11-25T01:26:59.373Z,95.70
2022-11-25T01:29:28.595Z,94.50
2022-11-25T01:31:57.344Z,100.53
2022-11-25T01:34:27.388Z,93.30
2022-11-25T01:36:58.882Z,99.17
2022-11-25T01:39:32.379Z,99.03
2022-11-25T01:42:03.124Z,110.83
2022-11-25T01:44:33.171Z,113.07
2022-11-25T01:47:05.970Z,102.43
2022-11-25T01:49:39.229Z,100.27
2022-11-25T01:52:15.205Z,92.30
2022-11-25T01:54:49.973Z,95.13
2022-11-25T01:57:26.432Z,91.67
2022-11-25T01:59:58.870Z,89.30
2022-11-25T02:02:27.222Z,96.00
2022-11-25T02:04:55.315Z,94.90
2022-11-25T02:07:29.631Z,100.53
2022-11-25T02:09:58.591Z,105.60
2022-11-25T02:12:29.422Z,103.10
2022-11-25T02:15:00.600Z,103.93
2022-11-25T02:17:28.774Z,103.77
2022-11-25T02:20:03.926Z,113.00
2022-11-25T02:22:47.391Z,104.03
2022-11-25T02:25:19.464Z,98.33
2022-11-25T02:27:51.925Z,99.33
2022-11-25T02:30:20.637Z,102.73
2022-11-25T02:32:50.227Z,119.57
2022-11-25T02:35:31.432Z,115.37
2022-11-25T02:38:05.092Z,105.53
2022-11-25T02:40:38.670Z,112.37
2022-11-25T02:43:06.851Z,105.53
2022-11-25T02:45:51.435Z,103.53
2022-11-25T02:48:34.533Z,99.03
2022-11-25T02:51:11.907Z,105.33
2022-11-25T02:53:40.615Z,97.37
2022-11-25T02:56:12.625Z,104.53
2022-11-25T02:58:41.096Z,103.17
2022-11-25T03:01:10.240Z,102.03
2022-11-25T03:03:38.709Z,99.77
2022-11-25T03:06:08.759Z,101.70
2022-11-25T03:08:38.094Z,113.47
2022-11-25T03:11:10.714Z,110.73
2022-11-25T03:13:39.565Z,122.43
2022-11-25T03:16:08.105Z,111.50
2022-11-25T03:18:36.719Z,113.30
2022-11-25T03:21:05.069Z,115.33
2022-11-25T03:23:33.172Z,108.87
2022-11-25T03:26:06.613Z,102.77
2022-11-25T03:28:36.515Z,101.83
2022-11-25T03:31:04.510Z,91.50
2022-11-25T03:33:33.245Z,97.67
2022-11-25T03:36:01.265Z,94.07
2022-11-25T03:38:29.398Z,93.23
2022-11-25T03:40:57.685Z,94.90
2022-11-25T03:43:25.858Z,95.07
2022-11-25T03:45:55.320Z,99.50
2022-11-25T03:48:23.488Z,94.60
2022-11-25T03:50:51.516Z,101.33
2022-11-25T03:53:19.594Z,91.93
2022-11-25T03:55:49.116Z,78.50
2022-11-25T03:58:20.354Z,83.20
2022-11-25T04:00:50.095Z,81.30
2022-11-25T04:03:20.079Z,85.40
2022-11-25T04:05:48.161Z,81.03
2022-11-25T04:08:16.213Z,82.70
2022-11-25T04:10:46.294Z,98.60
2022-11-25T04:13:14.214Z,95.47
2022-11-25T04:15:46.864Z,89.17
2022-11-25T04:18:16.789Z,101.00
2022-11-25T04:20:46.192Z,107.53
2022-11-25T04:23:15.232Z,105.87
2022-11-25T04:25:51.516Z,90.97
2022-11-25T04:28:45.947Z,99.63
2022-11-25T04:31:14.951Z,102.60
2022-11-25T04:33:49.661Z,95.57
2022-11-25T04:36:22.388Z,95.53
2022-11-25T04:38:50.876Z,93.13
2022-11-25T04:41:19.358Z,94.30
2022-11-25T04:43:47.447Z,92.47
2022-11-25T04:46:20.452Z,84.83
2022-11-25T04:48:51.564Z,88.57
2022-11-25T04:51:22.437Z,90.50
2022-11-25T04:53:54.191Z,92.43
2022-11-25T04:56:24.613Z,92.30
2022-11-25T04:59:11.944Z,93.27
2022-11-25T05:01:47.229Z,85.97
2022-11-25T05:04:25.687Z,91.27
2022-11-25T05:06:55.110Z,79.77
2022-11-25T05:09:25.533Z,91.10
2022-11-25T05:12:09.951Z,86.17
2022-11-25T05:14:38.525Z,88.03
2022-11-25T05:17:08.429Z,83.10
2022-11-25T05:19:37.176Z,82.60
2022-11-25T05:22:07.394Z,91.43
2022-11-25T05:24:35.756Z,80.73
2022-11-25T05:27:04.708Z,87.27
2022-11-25T05:29:33.456Z,89.63
2022-11-25T05:32:01.532Z,73.13
2022-11-25T05:34:30.991Z,85.40
2022-11-25T05:37:00.403Z,83.77
2022-11-25T05:39:31.968Z,82.57
2022-11-25T05:42:26.349Z,85.27
2022-11-25T05:44:54.825Z,74.60
2022-11-25T05:47:23.645Z,75.50
2022-11-25T05:49:51.859Z,75.93
2022-11-25T05:52:20.189Z,72.30
2022-11-25T05:54:58.896Z,81.33
2022-11-25T05:57:28.769Z,79.83
2022-11-25T06:00:16.666Z,78.03
2022-11-25T06:02:53.719Z,70.40
2022-11-25T06:05:25.341Z,76.40
2022-11-25T06:07:53.909Z,77.00
2022-11-25T06:10:24.890Z,72.57
2022-11-25T06:12:54.313Z,71.43
2022-11-25T06:15:22.556Z,77.50
2022-11-25T06:17:53.194Z,87.80
2022-11-25T06:20:25.532Z,78.50
2022-11-25T06:22:53.751Z,76.67
2022-11-25T06:25:29.037Z,76.93
2022-11-25T06:28:12.441Z,80.00
2022-11-25T06:30:42.671Z,80.93
2022-11-25T06:33:31.045Z,67.97
2022-11-25T06:36:04.929Z,76.13
2022-11-25T06:38:32.965Z,69.87
2022-11-25T06:41:03.238Z,73.23
2022-11-25T06:43:32.342Z,74.37
2022-11-25T06:46:04.519Z,71.40
2022-11-25T06:48:33.114Z,75.70
2022-11-25T06:51:02.621Z,72.10
2022-11-25T06:53:31.352Z,68.60
2022-11-25T06:56:13.635Z,78.57
2022-11-25T06:58:42.705Z,81.87
2022-11-25T07:01:15.229Z,82.30
2022-11-25T07:03:43.993Z,75.37
2022-11-25T07:06:13.569Z,81.97
2022-11-25T07:08:41.742Z,80.80
2022-11-25T07:11:15.344Z,74.07
2022-11-25T07:13:43.676Z,79.20
2022-11-25T07:16:14.961Z,71.53
2022-11-25T07:18:43.613Z,88.97
2022-11-25T07:21:13.874Z,78.90
2022-11-25T07:23:43.202Z,86.40
2022-11-25T07:26:15.249Z,73.30
2022-11-25T07:28:43.878Z,77.40
2022-11-25T07:31:27.547Z,79.23
2022-11-25T07:33:58.219Z,81.97
2022-11-25T07:36:26.875Z,83.27
2022-11-25T07:38:55.064Z,77.60
2022-11-25T07:41:26.263Z,83.07
2022-11-25T07:43:56.343Z,76.67
2022-11-25T07:46:27.765Z,82.43
2022-11-25T07:48:57.405Z,79.30
2022-11-25T07:51:27.661Z,70.63
2022-11-25T07:53:57.227Z,78.03
2022-11-25T07:56:26.806Z,79.83
2022-11-25T07:58:55.656Z,78.20
2022-11-25T08:01:24.072Z,78.63
2022-11-25T08:03:52.941Z,81.27
2022-11-25T08:06:22.830Z,73.53
2022-11-25T08:08:52.894Z,78.37
2022-11-25T08:11:23.407Z,85.37
2022-11-25T08:13:53.159Z,86.63
2022-11-25T08:16:23.777Z,75.83
2022-11-25T08:18:52.053Z,82.17
2022-11-25T08:21:20.469Z,80.50
2022-11-25T08:23:49.009Z,77.10
2022-11-25T08:26:20.587Z,73.53
2022-11-25T08:28:48.885Z,83.97
2022-11-25T08:31:21.867Z,82.27
2022-11-25T08:33:50.901Z,95.30
2022-11-25T08:36:19.350Z,82.97
2022-11-25T08:38:48.950Z,94.47
2022-11-25T08:41:19.394Z,87.60
2022-11-25T08:43:47.607Z,88.87
2022-11-25T08:46:19.605Z,88.07
2022-11-25T08:48:47.831Z,94.33
2022-11-25T08:51:18.738Z,93.10
2022-11-25T08:53:48.027Z,94.13
2022-11-25T08:56:17.180Z,96.73
2022-11-25T08:58:48.975Z,88.63
2022-11-25T09:01:19.396Z,92.93
2022-11-25T09:03:50.010Z,86.67
2022-11-25T09:06:19.264Z,85.83
2022-11-25T09:08:48.022Z,85.13
2022-11-25T09:11:16.793Z,94.27
2022-11-25T09:13:44.937Z,85.67
2022-11-25T09:16:13.170Z,85.17
2022-11-25T09:18:42.958Z,84.83
2022-11-25T09:21:13.074Z,80.80
2022-11-25T09:23:41.399Z,91.87
2022-11-25T09:26:16.834Z,99.20
2022-11-25T09:28:44.934Z,89.00
2022-11-25T09:31:14.618Z,92.73
2022-11-25T09:33:44.655Z,82.63
2022-11-25T09:36:13.874Z,81.83
2022-11-25T09:38:44.460Z,88.97
2022-11-25T09:41:40.248Z,85.77
2022-11-25T09:44:35.624Z,98.30
2022-11-25T09:47:08.982Z,89.10
2022-11-25T09:49:51.595Z,85.23
2022-11-25T09:52:31.351Z,86.73
2022-11-25T09:55:05.703Z,89.17
2022-11-25T09:57:59.472Z,81.90
2022-11-25T10:00:33.958Z,85.37
2022-11-25T10:03:08.052Z,90.17
2022-11-25T10:05:42.809Z,88.10
2022-11-25T10:08:14.088Z,89.23
2022-11-25T10:10:45.736Z,95.30
2022-11-25T10:13:19.067Z,79.83
2022-11-25T10:15:50.650Z,94.20
2022-11-25T10:18:25.114Z,91.60
2022-11-25T10:20:55.611Z,85.60
2022-11-25T10:23:28.739Z,91.07
2022-11-25T10:26:00.156Z,95.97
2022-11-25T10:28:32.514Z,88.87
2022-11-25T10:31:05.924Z,95.13
2022-11-25T10:33:39.273Z,85.00
2022-11-25T10:36:16.580Z,83.40
2022-11-25T10:38:51.357Z,77.70
2022-11-25T10:41:24.590Z,81.87
2022-11-25T10:43:52.773Z,81.30
2022-11-25T10:46:57.156Z,79.33
2022-11-25T10:49:30.319Z,76.50
2022-11-25T10:51:59.910Z,80.27
2022-11-25T10:54:29.979Z,73.90
2022-11-25T10:57:00.495Z,73.07
2022-11-25T10:59:31.211Z,74.53
2022-11-25T11:02:19.523Z,78.80
2022-11-25T11:04:54.553Z,69.73
2022-11-25T11:07:25.000Z,72.40
2022-11-25T11:09:53.293Z,72.90
2022-11-25T11:12:23.679Z,70.32
2022-11-25T11:14:52.651Z,78.03
2022-11-25T11:17:41.522Z,67.75
2022-11-25T11:20:18.837Z,63.57
2022-11-25T11:22:51.397Z,70.72
2022-11-25T11:25:32.099Z,76.47
2022-11-25T11:28:00.617Z,72.80
2022-11-25T11:30:30.740Z,73.05
2022-11-25T11:33:02.742Z,72.83
2022-11-25T11:35:48.848Z,71.93
2022-11-25T11:38:34.857Z,82.53
2022-11-25T11:41:17.080Z,77.63
2022-11-25T11:43:57.487Z,82.23
2022-11-25T11:46:42.290Z,84.50
2022-11-25T11:49:40.340Z,73.27
2022-11-25T11:52:17.203Z,83.40
2022-11-25T11:54:51.525Z,84.73
2022-11-25T11:57:30.693Z,88.47
2022-11-25T12:00:05.535Z,80.93
2022-11-25T12:02:55.522Z,88.33
2022-11-25T12:05:27.234Z,94.53
2022-11-25T12:08:07.622Z,87.70
2022-11-25T12:10:41.110Z,87.50
2022-11-25T12:13:19.194Z,93.90
2022-11-25T12:15:52.901Z,93.13
2022-11-25T12:18:33.426Z,88.60
2022-11-25T12:21:05.282Z,89.87
2022-11-25T12:23:44.018Z,97.17
2022-11-25T12:26:20.698Z,91.03
2022-11-25T12:28:54.418Z,94.00
2022-11-25T12:31:27.724Z,97.80
2022-11-25T12:34:03.361Z,96.77
2022-11-25T12:36:35.642Z,99.40
2022-11-25T12:39:06.304Z,98.07
2022-11-25T12:41:42.876Z,94.20
2022-11-25T12:44:17.881Z,102.50
2022-11-25T12:46:48.259Z,101.60
2022-11-25T12:49:21.005Z,89.93
2022-11-25T12:52:16.970Z,99.60
2022-11-25T12:55:00.116Z,101.13
2022-11-25T12:57:57.510Z,99.23
2022-11-25T13:00:41.503Z,96.97
2022-11-25T13:03:47.417Z,109.53
2022-11-25T13:06:41.971Z,106.03
2022-11-25T13:09:31.153Z,103.67
2022-11-25T13:12:21.908Z,99.17
2022-11-25T13:15:20.063Z,97.27
2022-11-25T13:17:51.014Z,89.40
2022-11-25T13:20:48.618Z,100.23
2022-11-25T13:23:32.810Z,103.63
2022-11-25T13:26:50.337Z,95.67
2022-11-25T13:30:04.440Z,98.50
2022-11-25T13:32:43.825Z,100.07
2022-11-25T13:35:37.066Z,111.50
2022-11-25T13:38:38.040Z,104.67
2022-11-25T13:41:24.680Z,98.40
2022-11-25T13:44:01.726Z,103.57
2022-11-25T13:46:38.476Z,101.80
2022-11-25T13:49:25.141Z,105.17
2022-11-25T13:51:55.854Z,106.87
2022-11-25T13:54:32.635Z,104.80
2022-11-25T13:57:18.644Z,101.47
2022-11-25T13:59:52.376Z,93.67
2022-11-25T14:02:49.931Z,99.67
2022-11-25T14:08:24.724Z,104.53
2022-11-25T14:11:01.813Z,108.00
2022-11-25T14:13:52.358Z,110.43
2022-11-25T14:16:49.810Z,110.80
2022-11-25T14:19:53.482Z,110.43
2022-11-25T14:22:42.307Z,97.57
2022-11-25T14:25:22.323Z,105.30
2022-11-25T14:28:03.515Z,103.35
2022-11-25T14:30:33.685Z,101.00
2022-11-25T14:33:06.008Z,104.30
2022-11-25T14:35:44.842Z,106.87
2022-11-25T14:38:17.434Z,105.83
2022-11-25T14:40:55.914Z,109.63
2022-11-25T14:43:26.076Z,102.07
2022-11-25T14:46:13.720Z,112.87
2022-11-25T14:48:41.988Z,119.03
2022-11-25T14:51:13.828Z,109.63
2022-11-25T14:53:48.158Z,103.40
2022-11-25T14:56:25.029Z,111.07
2022-11-25T14:58:55.972Z,108.50
2022-11-25T15:01:25.836Z,106.70
2022-11-25T15:04:03.362Z,114.47
2022-11-25T15:06:35.788Z,116.97
2022-11-25T15:09:04.981Z,114.47
2022-11-25T15:11:36.050Z,118.60
2022-11-25T15:14:06.942Z,106.93
2022-11-25T15:16:39.658Z,110.77
2022-11-25T15:19:15.926Z,115.13
2022-11-25T15:22:15.013Z,121.63
2022-11-25T15:24:42.781Z,120.63
2022-11-25T15:27:17.093Z,112.03
2022-11-25T15:29:47.332Z,112.90
2022-11-25T15:32:19.858Z,115.93
2022-11-25T15:34:49.820Z,115.90
2022-11-25T15:37:18.179Z,120.77
2022-11-25T15:39:46.878Z,110.67
2022-11-25T15:42:21.330Z,116.03
2022-11-25T15:44:53.887Z,115.33
2022-11-25T15:47:25.923Z,120.70
2022-11-25T15:50:01.416Z,110.80
2022-11-25T15:52:32.859Z,109.37
2022-11-25T15:55:04.384Z,120.67
2022-11-25T15:57:36.474Z,103.90
2022-11-25T16:00:20.601Z,120.00
2022-11-25T16:02:54.972Z,119.40
2022-11-25T16:05:33.007Z,104.67
2022-11-25T16:08:26.446Z,113.20
2022-11-25T16:10:57.300Z,112.27
2022-11-25T16:13:33.546Z,113.43
2022-11-25T16:16:11.917Z,111.07
2022-11-25T16:18:44.018Z,105.47
2022-11-25T16:21:15.826Z,110.90
2022-11-25T16:23:48.051Z,109.43
2022-11-25T16:26:19.771Z,115.73
2022-11-25T16:28:58.271Z,110.93
2022-11-25T16:31:26.797Z,114.17
2022-11-25T16:33:57.423Z,109.07
2022-11-25T16:36:25.603Z,113.87
2022-11-25T16:38:55.345Z,110.57
2022-11-25T16:41:26.955Z,103.70
2022-11-25T16:43:58.613Z,111.73
2022-11-25T16:46:29.246Z,103.90
2022-11-25T16:48:57.469Z,111.77
2022-11-25T16:51:25.975Z,96.27
2022-11-25T16:53:54.127Z,106.37
2022-11-25T16:56:25.697Z,103.40
2022-11-25T16:58:54.873Z,115.00
2022-11-25T17:01:26.768Z,99.13
2022-11-25T17:03:55.224Z,101.10
2022-11-25T17:06:25.093Z,104.97
2022-11-25T17:08:53.718Z,100.43
2022-11-25T17:11:25.107Z,98.77
2022-11-25T17:13:54.891Z,105.60
2022-11-25T17:16:27.019Z,102.53
2022-11-25T17:18:57.413Z,112.03
2022-11-25T17:21:28.951Z,103.07
2022-11-25T17:24:02.566Z,113.03
2022-11-25T17:26:38.362Z,104.43
2022-11-25T17:29:09.692Z,109.20
2022-11-25T17:31:40.051Z,98.17
2022-11-25T17:34:08.352Z,107.47
2022-11-25T17:36:36.469Z,111.60
2022-11-25T17:39:04.804Z,102.33
2022-11-25T17:41:39.495Z,107.77
2022-11-25T17:44:11.450Z,110.40
2022-11-25T17:46:41.193Z,116.20
2022-11-25T17:49:15.305Z,109.65
2022-11-25T17:51:43.870Z,110.70
2022-11-25T17:54:12.792Z,122.33
2022-11-25T17:56:44.652Z,125.77
2022-11-25T17:59:26.709Z,120.33
2022-11-25T18:01:56.550Z,132.47
2022-11-25T18:04:26.487Z,121.67
2022-11-25T18:06:55.172Z,116.53
2022-11-25T18:09:29.748Z,119.17
2022-11-25T18:12:00.853Z,122.63
2022-11-25T18:14:32.029Z,115.40
2022-11-25T18:17:04.969Z,114.37
2022-11-25T18:19:33.399Z,127.23
2022-11-25T18:22:06.977Z,126.37
2022-11-25T18:24:37.335Z,120.63
2022-11-25T18:27:07.048Z,114.17
2022-11-25T18:29:35.223Z,135.73
2022-11-25T18:32:04.848Z,132.03
2022-11-25T18:34:32.924Z,128.00
2022-11-25T18:37:02.564Z,120.87
2022-11-25T18:39:30.729Z,136.13
2022-11-25T18:41:59.995Z,132.23
2022-11-25T18:44:30.057Z,127.07
2022-11-25T18:46:58.307Z,138.77
2022-11-25T18:49:27.994Z,129.63
2022-11-25T18:51:56.009Z,139.23
2022-11-25T18:54:24.184Z,136.70
2022-11-25T18:56:52.952Z,144.40
2022-11-25T18:59:27.674Z,140.97
2022-11-25T19:01:56.341Z,135.73
2022-11-25T19:04:24.547Z,127.83
2022-11-25T19:06:54.131Z,138.30
2022-11-25T19:09:22.199Z,133.98
2022-11-25T19:11:53.884Z,141.17
2022-11-25T19:14:29.196Z,142.63
2022-11-25T19:17:00.330Z,135.80
2022-11-25T19:19:28.947Z,123.55
2022-11-25T19:22:01.451Z,148.03
2022-11-25T19:24:29.850Z,145.97
2022-11-25T19:26:58.433Z,142.13
2022-11-25T19:29:33.300Z,149.77
2022-11-25T19:32:05.325Z,163.10
2022-11-25T19:34:37.626Z,141.17
2022-11-25T19:37:07.549Z,139.65
2022-11-25T19:39:37.399Z,140.60
2022-11-25T19:42:05.640Z,168.43
2022-11-25T19:44:33.712Z,141.97
2022-11-25T19:47:15.353Z,169.87
2022-11-25T19:49:44.711Z,150.00
2022-11-25T19:52:19.438Z,155.83
2022-11-25T19:54:48.073Z,152.40
2022-11-25T19:57:17.783Z,161.53
2022-11-25T19:59:46.478Z,174.80
2022-11-25T20:02:17.002Z,168.70
2022-11-25T20:04:46.606Z,180.67
2022-11-25T20:07:16.728Z,159.97
2022-11-25T20:09:46.532Z,170.63
2022-11-25T20:12:21.041Z,218.70
2022-11-25T20:14:50.529Z,216.57
2022-11-25T20:17:25.866Z,156.43
2022-11-25T20:19:57.211Z,183.73
2022-11-25T20:22:31.411Z,221.35
2022-11-25T20:25:03.505Z,210.20
2022-11-25T20:27:31.656Z,259.83
2022-11-25T20:29:59.729Z,171.93
2022-11-25T20:32:29.813Z,234.23
2022-11-25T20:34:59.163Z,190.93
2022-11-25T20:37:40.413Z,169.48
2022-11-25T20:40:19.615Z,163.77
2022-11-25T20:42:48.582Z,168.53
2022-11-25T20:45:17.445Z,169.87
2022-11-25T20:47:45.997Z,154.70
2022-11-25T20:50:15.391Z,163.73
2022-11-25T20:52:44.211Z,150.02
2022-11-25T20:55:20.338Z,165.63
2022-11-25T20:57:49.916Z,148.55
2022-11-25T21:00:21.001Z,172.73
2022-11-25T21:02:49.661Z,159.00
2022-11-25T21:05:17.784Z,159.80
2022-11-25T21:07:46.720Z,158.88
2022-11-25T21:10:23.219Z,149.95
2022-11-25T21:12:51.885Z,161.53
2022-11-25T21:15:22.051Z,167.00
2022-11-25T21:17:50.281Z,162.47
2022-11-25T21:20:19.905Z,180.63
2022-11-25T21:22:51.284Z,167.47
2022-11-25T21:25:22.417Z,150.83
2022-11-25T21:27:52.217Z,142.73
2022-11-25T21:30:22.733Z,164.77
2022-11-25T21:32:53.269Z,153.27
2022-11-25T21:35:21.723Z,154.75
2022-11-25T21:37:49.857Z,146.77
2022-11-25T21:40:34.514Z,157.48
2022-11-25T21:43:03.747Z,162.07
2022-11-25T21:45:31.821Z,144.17
2022-11-25T21:47:59.947Z,139.00
2022-11-25T21:50:29.981Z,153.60
2022-11-25T21:52:58.238Z,147.35
2022-11-25T21:55:27.660Z,147.07
2022-11-25T21:57:55.889Z,147.10
2022-11-25T22:00:26.535Z,149.20
2022-11-25T22:02:55.155Z,149.60
2022-11-25T22:05:25.745Z,157.20
2022-11-25T22:07:56.072Z,159.20
2022-11-25T22:10:24.293Z,142.70
2022-11-25T22:12:53.803Z,160.95
2022-11-25T22:15:23.889Z,157.30
2022-11-25T22:17:56.912Z,152.30
2022-11-25T22:20:30.744Z,147.32
2022-11-25T22:22:58.913Z,158.43
2022-11-25T22:25:28.819Z,166.43
2022-11-25T22:27:58.442Z,159.57
2022-11-25T22:30:26.647Z,180.90
2022-11-25T22:33:01.600Z,164.70
2022-11-25T22:35:30.251Z,180.00
2022-11-25T22:38:00.799Z,173.80
2022-11-25T22:40:29.102Z,175.83
2022-11-25T22:43:00.858Z,181.43
2022-11-25T22:45:33.367Z,186.88
2022-11-25T22:48:04.583Z,167.80
2022-11-25T22:50:34.608Z,168.30
2022-11-25T22:53:03.347Z,168.07
2022-11-25T22:55:33.467Z,166.77
2022-11-25T22:58:04.572Z,169.95
2022-11-25T23:00:34.812Z,170.38
2022-11-25T23:03:06.157Z,163.00
2022-11-25T23:05:35.737Z,176.03
2022-11-25T23:08:10.600Z,198.90
2022-11-25T23:10:38.876Z,183.48
2022-11-25T23:13:08.461Z,187.10
2022-11-25T23:15:37.062Z,178.33
2022-11-25T23:18:10.728Z,179.13
2022-11-25T23:20:40.784Z,203.80
2022-11-25T23:23:14.884Z,175.20
2022-11-25T23:25:43.008Z,186.10
2022-11-25T23:28:12.542Z,179.25
2022-11-25T23:30:44.966Z,175.90
2022-11-25T23:33:26.839Z,198.27
2022-11-25T23:35:56.480Z,184.15
2022-11-25T23:38:27.341Z,191.32
2022-11-25T23:40:55.590Z,188.95
2022-11-25T23:43:27.736Z,186.40
2022-11-25T23:45:57.234Z,202.67
2022-11-25T23:48:30.967Z,186.07
2022-11-25T23:51:00.358Z,219.97
2022-11-25T23:53:32.160Z,176.33
2022-11-25T23:56:00.342Z,176.23
2022-11-25T23:58:29.743Z,181.50
